Time;durP1;ratioP1;P1;durP2;ratioP2;P2;SDS_P1;SDS_P2;PMS_P1;PMS_P2;Temp;Humidity;BMP_temperature;BMP_pressure;BME280_temperature;BME280_humidity;BME280_pressure;Samples;Min_cycle;Max_cycle;Signal;HPM_P1;HPM_P2
2023/06/23 00:00:14;;;;;;;2.85;1.95;;;;;;;25.40;29.35;98829.19;5059896;28;20112;-66
2023/06/23 00:02:42;;;;;;;5.15;1.95;;;;;;;25.50;29.22;98839.22;5078709;28;20396;-65
2023/06/23 00:05:08;;;;;;;4.18;2.08;;;;;;;25.56;29.37;98841.69;5036160;28;20091;-65
2023/06/23 00:07:37;;;;;;;8.20;3.03;;;;;;;25.54;29.30;98838.41;5035972;28;20049;-65
2023/06/23 00:10:05;;;;;;;3.45;2.00;;;;;;;25.16;30.00;98824.53;5052921;28;20148;-65
2023/06/23 00:12:35;;;;;;;5.28;2.10;;;;;;;25.29;29.86;98813.94;5036814;28;20044;-65
2023/06/23 00:15:03;;;;;;;;;;;;;;;25.70;29.22;98823.72;5029812;28;20401;-66
2023/06/23 00:17:30;;;;;;;5.93;1.80;;;;;;;25.48;29.70;98817.75;5014898;28;19914;-65
2023/06/23 00:19:57;;;;;;;6.40;2.38;;;;;;;25.27;29.62;98818.00;4997262;28;20076;-65
2023/06/23 00:22:25;;;;;;;4.60;2.17;;;;;;;25.46;29.60;98811.78;5012952;28;20057;-65
2023/06/23 00:24:51;;;;;;;5.07;2.35;;;;;;;25.63;29.56;98808.78;5013042;28;20054;-65
2023/06/23 00:27:16;;;;;;;3.22;2.00;;;;;;;25.53;29.21;98801.44;4979964;28;20092;-65
2023/06/23 00:29:42;;;;;;;2.83;2.30;;;;;;;25.13;29.78;98795.19;4980434;28;20053;-65
2023/06/23 00:32:08;;;;;;;4.72;2.40;;;;;;;24.94;30.04;98799.53;4980054;28;20038;-65
2023/06/23 00:34:35;;;;;;;3.63;1.92;;;;;;;24.45;31.10;98797.25;4980622;28;20160;-65
2023/06/23 00:37:02;;;;;;;9.20;2.40;;;;;;;24.72;30.54;98795.16;5030883;28;20049;-66
2023/06/23 00:39:29;;;;;;;8.27;2.40;;;;;;;24.75;30.49;98796.53;5035829;28;20044;-66
2023/06/23 00:42:01;;;;;;;8.57;2.92;;;;;;;25.04;30.57;98794.91;5019246;28;20049;-66
2023/06/23 00:44:27;;;;;;;4.53;1.92;;;;;;;24.81;30.46;98798.16;5052259;28;20135;-65
2023/06/23 00:46:52;;;;;;;4.97;2.95;;;;;;;24.72;31.04;98797.06;5051144;28;20139;-65
2023/06/23 00:49:19;;;;;;;8.55;2.40;;;;;;;24.59;30.96;98787.50;5056573;28;20075;-67
2023/06/23 00:51:45;;;;;;;3.15;2.00;;;;;;;24.69;31.34;98792.97;5023927;28;20037;-65
2023/06/23 00:54:12;;;;;;;6.68;2.47;;;;;;;24.48;31.71;98788.56;5056669;28;20028;-65
2023/06/23 00:56:38;;;;;;;3.58;2.17;;;;;;;24.69;31.36;98787.53;5073980;28;20369;-65
2023/06/23 00:59:07;;;;;;;10.63;2.65;;;;;;;24.57;31.56;98789.66;5072705;28;20098;-65
2023/06/23 01:01:33;;;;;;;3.03;2.17;;;;;;;24.79;31.35;98794.91;5038457;28;20049;-66
2023/06/23 01:03:59;;;;;;;4.13;2.78;;;;;;;24.73;31.90;98788.66;5021740;28;20055;-66
2023/06/23 01:06:30;;;;;;;8.43;2.45;;;;;;;24.73;31.78;98796.81;5022002;28;20046;-65
2023/06/23 01:09:06;;;;;;;5.88;2.25;;;;;;;24.81;32.25;98806.31;5054823;28;20063;-65
2023/06/23 01:11:57;;;;;;;11.35;2.65;;;;;;;24.85;32.14;98802.78;5072027;28;20048;-65
2023/06/23 01:14:31;;;;;;;15.68;4.85;;;;;;;24.88;32.64;98800.63;5027421;28;20056;-65
2023/06/23 01:17:03;;;;;;;6.93;2.22;;;;;;;25.08;32.04;98806.88;5055047;28;20202;-65
2023/06/23 01:19:52;;;;;;;5.72;2.67;;;;;;;25.43;31.40;98811.53;5054685;28;20063;-65
2023/06/23 01:22:32;;;;;;;9.60;3.22;;;;;;;25.38;31.60;98806.91;5038814;28;20052;-66
2023/06/23 01:25:08;;;;;;;5.97;3.77;;;;;;;25.18;31.86;98814.22;5055940;28;20090;-66
2023/06/23 01:27:58;;;;;;;8.27;3.40;;;;;;;25.71;31.31;98813.66;5039856;28;20389;-65
2023/06/23 01:30:26;;;;;;;9.52;2.88;;;;;;;25.62;31.35;98807.13;5055248;28;20052;-66
2023/06/23 01:32:58;;;;;;;10.35;2.50;;;;;;;25.75;31.09;98807.38;5021767;28;20131;-66
2023/06/23 01:35:28;;;;;;;4.88;2.30;;;;;;;25.59;31.08;98792.19;5054808;28;20048;-65
2023/06/23 01:38:02;;;;;;;4.28;2.50;;;;;;;25.68;31.57;98801.41;5054715;28;20044;-65
2023/06/23 01:40:30;;;;;;;4.80;2.75;;;;;;;25.11;31.72;98795.44;5039214;28;20037;-65
2023/06/23 01:42:58;;;;;;;8.88;2.95;;;;;;;25.04;32.38;98804.97;5072150;28;20134;-65
2023/06/23 01:45:28;;;;;;;7.95;2.15;;;;;;;24.71;33.03;98806.28;5038983;28;20501;-65
2023/06/23 01:47:58;;;;;;;4.63;2.85;;;;;;;24.92;32.72;98805.25;5055837;28;20040;-65
2023/06/23 01:50:23;;;;;;;4.22;2.35;;;;;;;24.86;32.39;98801.69;5088832;28;20042;-65
2023/06/23 01:52:52;;;;;;;3.65;2.20;;;;;;;25.01;32.68;98786.50;5055895;28;20036;-65
2023/06/23 01:55:18;;;;;;;5.03;2.28;;;;;;;25.14;32.62;98815.84;5055603;28;20055;-65
2023/06/23 01:57:47;;;;;;;10.63;2.35;;;;;;;25.16;32.81;98822.63;5055443;28;20082;-65
2023/06/23 02:00:16;;;;;;;5.65;2.00;;;;;;;25.20;32.87;98818.28;5038746;28;20032;-65
2023/06/23 02:02:45;;;;;;;3.22;2.13;;;;;;;25.31;32.62;98822.63;5071655;28;20044;-65
2023/06/23 02:05:11;;;;;;;4.40;1.98;;;;;;;25.08;33.35;98806.06;5055038;28;20052;-65
2023/06/23 02:07:39;;;;;;;4.18;2.25;;;;;;;25.42;32.92;98827.00;5040051;28;20067;-65
2023/06/23 02:10:06;;;;;;;6.95;2.70;;;;;;;25.25;32.80;98823.72;5057614;28;20040;-65
2023/06/23 02:12:33;;;;;;;10.20;3.03;;;;;;;24.97;33.25;98826.97;5039057;28;20044;-65
2023/06/23 02:15:00;;;;;;;4.38;2.28;;;;;;;25.13;33.34;98815.03;5038582;28;20583;-65
2023/06/23 02:17:26;;;;;;;4.20;2.60;;;;;;;25.24;32.41;98832.97;5056749;28;20468;-66
2023/06/23 02:19:53;;;;;;;7.22;2.78;;;;;;;25.20;32.55;98823.72;5041535;28;20086;-65
2023/06/23 02:22:24;;;;;;;4.53;2.47;;;;;;;25.40;32.53;98834.63;5072869;28;20048;-65
2023/06/23 02:24:51;;;;;;;6.03;2.90;;;;;;;25.21;32.64;98822.66;5071486;28;20044;-65
2023/06/23 02:27:17;;;;;;;6.53;3.88;;;;;;;25.17;32.94;98824.25;5071146;28;20396;-65
2023/06/23 02:29:44;;;;;;;6.80;3.70;;;;;;;25.17;32.88;98812.59;5054791;28;20052;-65
2023/06/23 02:32:16;;;;;;;4.53;2.72;;;;;;;25.43;32.84;98815.03;5071490;28;20480;-65
2023/06/23 02:34:49;;;;;;;6.72;2.75;;;;;;;25.63;32.77;98808.78;5056369;28;20040;-65
2023/06/23 02:37:22;;;;;;;6.28;2.97;;;;;;;25.67;33.07;98801.69;5040405;28;20051;-65
2023/06/23 02:39:54;;;;;;;5.90;2.90;;;;;;;25.80;33.17;98812.78;5058159;28;20036;-66
2023/06/23 02:42:24;;;;;;;4.47;2.40;;;;;;;25.68;33.48;98801.41;5074036;28;20105;-65
2023/06/23 02:44:59;;;;;;;7.75;4.00;;;;;;;25.57;34.56;98799.78;5072075;28;20105;-65
2023/06/23 02:47:26;;;;;;;8.40;3.53;;;;;;;24.97;35.95;98788.13;5071433;28;20056;-69
2023/06/23 02:49:57;;;;;;;6.03;2.83;;;;;;;24.52;36.44;98781.53;5038340;28;20385;-65
2023/06/23 02:52:26;;;;;;;7.05;2.97;;;;;;;24.41;37.36;98779.03;5071239;28;20140;-65
2023/06/23 02:54:53;;;;;;;8.70;2.97;;;;;;;24.71;36.83;98793.53;5022002;28;20101;-65
2023/06/23 02:57:19;;;;;;;7.70;3.85;;;;;;;24.87;36.51;98797.09;5070956;28;20631;-65
2023/06/23 02:59:46;;;;;;;6.07;3.30;;;;;;;24.92;36.82;98806.03;5071476;28;20485;-64
2023/06/23 03:02:15;;;;;;;6.50;4.28;;;;;;;25.08;36.47;98803.34;5069682;28;20048;-65
2023/06/23 03:04:45;;;;;;;7.40;3.67;;;;;;;24.88;36.03;98776.19;5053285;28;20062;-64
2023/06/23 03:07:11;;;;;;;7.80;4.72;;;;;;;24.96;36.54;98797.34;5054242;28;20129;-65
2023/06/23 03:09:37;;;;;;;6.88;3.17;;;;;;;25.07;36.08;98793.56;5021076;28;20501;-67
2023/06/23 03:12:04;;;;;;;8.55;3.90;;;;;;;25.27;35.63;98797.09;5069695;28;20036;-66
2023/06/23 03:14:36;;;;;;;6.63;3.13;;;;;;;25.49;35.63;98802.25;5071950;28;20033;-65
2023/06/23 03:17:23;;;;;;;5.90;3.17;;;;;;;25.56;35.31;98798.16;5054843;28;20074;-66
2023/06/23 03:20:05;;;;;;;9.07;3.92;;;;;;;25.77;35.39;98791.59;5039476;28;20056;-65
2023/06/23 03:22:39;;;;;;;8.65;3.10;;;;;;;26.01;35.29;98780.94;5062479;28;20032;-66
2023/06/23 03:25:11;;;;;;;8.90;3.53;;;;;;;26.33;33.91;98800.38;5039025;28;20071;-66
2023/06/23 03:27:38;;;;;;;12.57;3.55;;;;;;;26.50;33.82;98795.41;5078705;28;20031;-65
2023/06/23 03:30:23;;;;;;;10.02;3.58;;;;;;;26.87;33.56;98801.19;5083094;28;20082;-65
2023/06/23 03:32:54;;;;;;;10.18;3.40;;;;;;;26.72;33.51;98779.50;5066802;28;20042;-65
2023/06/23 03:35:25;;;;;;;5.85;3.25;;;;;;;26.98;33.28;98804.66;5055578;28;20046;-65
2023/06/23 03:37:59;;;;;;;9.55;3.63;;;;;;;27.10;33.14;98789.56;5015318;28;20133;-65
2023/06/23 03:40:26;;;;;;;7.60;3.38;;;;;;;27.07;33.04;98792.03;5016179;28;20053;-65
2023/06/23 03:42:54;;;;;;;7.47;3.70;;;;;;;26.98;32.63;98797.31;5015616;28;20087;-65
2023/06/23 03:45:23;;;;;;;13.50;4.78;;;;;;;26.97;32.16;98803.81;5032335;28;20055;-65
2023/06/23 03:47:51;;;;;;;12.15;3.80;;;;;;;26.81;32.70;98783.25;5015690;28;20048;-65
2023/06/23 03:50:20;;;;;;;13.02;4.18;;;;;;;27.10;32.47;98791.47;5030930;28;20087;-65
2023/06/23 03:52:46;;;;;;;12.07;4.38;;;;;;;27.26;32.59;98795.75;5006678;28;20067;-65
2023/06/23 03:55:13;;;;;;;14.63;4.07;;;;;;;27.38;32.50;98786.09;5003231;28;20041;-65
2023/06/23 03:57:41;;;;;;;7.70;3.67;;;;;;;27.54;32.62;98797.63;5024639;28;20056;-65
2023/06/23 04:00:11;;;;;;;11.23;3.90;;;;;;;27.57;32.60;98788.91;5038826;28;20060;-66
2023/06/23 04:02:45;;;;;;;9.13;3.65;;;;;;;27.62;32.87;98788.81;5005518;28;20057;-65
2023/06/23 04:05:16;;;;;;;11.63;4.13;;;;;;;27.61;32.82;98781.75;5010928;28;20056;-67
2023/06/23 04:07:44;;;;;;;9.38;4.00;;;;;;;27.50;32.61;98781.06;5047865;28;20045;-66
2023/06/23 04:10:11;;;;;;;6.60;4.22;;;;;;;27.46;32.62;98779.19;5050473;28;20040;-65
2023/06/23 04:12:37;;;;;;;5.75;4.20;;;;;;;27.30;32.53;98777.69;5069077;28;20066;-65
2023/06/23 04:15:05;;;;;;;10.05;4.22;;;;;;;27.58;32.59;98782.34;5068841;28;20037;-66
2023/06/23 04:17:33;;;;;;;8.30;4.03;;;;;;;27.74;32.91;98792.78;5043310;28;20080;-66
2023/06/23 04:20:01;;;;;;;8.60;5.22;;;;;;;27.68;32.88;98788.50;5067964;28;20469;-65
2023/06/23 04:22:28;;;;;;;11.43;4.55;;;;;;;27.15;33.90;98791.44;5067243;28;20033;-65
2023/06/23 04:24:55;;;;;;;10.38;5.10;;;;;;;27.50;33.68;98786.50;5066532;28;20047;-65
2023/06/23 04:27:21;;;;;;;16.55;8.40;;;;;;;27.09;35.18;98785.22;5067981;28;20460;-67
2023/06/23 04:29:49;;;;;;;10.82;4.38;;;;;;;27.52;34.63;98791.66;5051545;28;20537;-65
2023/06/23 04:32:16;;;;;;;9.10;4.80;;;;;;;27.69;33.89;98798.28;5047372;28;20484;-65
2023/06/23 04:34:42;;;;;;;7.78;4.47;;;;;;;27.57;33.99;98800.59;5073708;28;20041;-66
2023/06/23 04:37:27;;;;;;;10.23;4.93;;;;;;;27.65;34.28;98799.16;5074205;28;20040;-66
2023/06/23 04:39:55;;;;;;;10.68;4.53;;;;;;;27.52;34.38;98797.91;5048003;28;20128;-65
2023/06/23 04:42:29;;;;;;;8.73;4.40;;;;;;;27.78;34.42;98787.56;5072383;28;20134;-65
2023/06/23 04:44:58;;;;;;;6.65;4.07;;;;;;;27.72;34.24;98788.75;5072542;28;20076;-65
2023/06/23 04:47:25;;;;;;;11.50;4.80;;;;;;;27.68;34.10;98807.59;5072605;28;20050;-66
2023/06/23 04:50:04;;;;;;;8.63;5.07;;;;;;;27.64;34.40;98787.47;5071569;28;20048;-65
2023/06/23 04:52:30;;;;;;;9.77;5.07;;;;;;;27.49;35.17;98793.03;5039323;28;20041;-66
2023/06/23 04:54:59;;;;;;;8.85;5.43;;;;;;;27.14;35.40;98798.00;5056622;28;20044;-65
2023/06/23 04:57:28;;;;;;;12.90;6.00;;;;;;;27.07;35.53;98790.13;5059077;28;20059;-65
2023/06/23 04:59:57;;;;;;;11.52;5.97;;;;;;;26.94;35.61;98793.50;5057144;28;20055;-66
2023/06/23 05:02:25;;;;;;;17.02;6.13;;;;;;;27.13;35.81;98790.91;5056523;28;20052;-65
2023/06/23 05:04:52;;;;;;;9.75;6.20;;;;;;;27.26;35.41;98793.00;5038763;28;20057;-65
2023/06/23 05:07:18;;;;;;;17.23;6.28;;;;;;;27.42;35.49;98778.13;5038870;28;20048;-65
2023/06/23 05:09:48;;;;;;;16.83;7.40;;;;;;;27.56;35.42;98776.34;5038842;28;20480;-65
2023/06/23 05:12:16;;;;;;;12.68;6.72;;;;;;;27.16;36.93;98776.69;5007220;28;20079;-65
2023/06/23 05:14:43;;;;;;;12.32;7.00;;;;;;;26.75;38.16;98778.13;5039393;28;20052;-65
2023/06/23 05:17:11;;;;;;;11.25;7.22;;;;;;;26.28;40.79;98773.19;5055059;28;20237;-65
2023/06/23 05:19:40;;;;;;;20.27;7.68;;;;;;;26.09;41.98;98773.00;5021974;28;20052;-67
2023/06/23 05:22:11;;;;;;;10.95;7.03;;;;;;;26.04;42.69;98769.50;5038481;28;20045;-65
2023/06/23 05:24:40;;;;;;;10.88;6.78;;;;;;;26.13;42.15;98768.63;5055629;28;20084;-65
2023/06/23 05:27:08;;;;;;;11.18;6.20;;;;;;;26.25;41.47;98779.19;5054997;28;20040;-64
2023/06/23 05:29:54;;;;;;;10.93;6.53;;;;;;;26.51;41.98;98774.44;5054791;28;20095;-66
2023/06/23 05:32:22;;;;;;;10.93;6.80;;;;;;;26.26;41.92;98773.47;5021742;28;20147;-65
2023/06/23 05:34:49;;;;;;;12.35;7.35;;;;;;;25.77;42.85;98764.38;5055108;28;20048;-65
2023/06/23 05:37:17;;;;;;;13.02;7.63;;;;;;;26.01;42.69;98779.03;5039161;28;20048;-65
2023/06/23 05:39:43;;;;;;;12.63;7.60;;;;;;;25.81;42.68;98760.03;5023084;28;20118;-65
2023/06/23 05:42:10;;;;;;;16.30;8.23;;;;;;;26.21;42.58;98784.41;5073091;28;20560;-65
2023/06/23 05:44:37;;;;;;;14.55;7.53;;;;;;;26.39;42.03;98763.88;5055603;28;20044;-65
2023/06/23 05:47:04;;;;;;;13.50;8.50;;;;;;;26.82;41.34;98787.59;5022875;28;20046;-65
2023/06/23 05:49:35;;;;;;;10.77;6.40;;;;;;;27.24;40.80;98774.19;5039312;28;20127;-65
2023/06/23 05:52:02;;;;;;;12.60;6.30;;;;;;;27.50;40.08;98786.50;5039236;28;20040;-65
2023/06/23 05:54:33;;;;;;;10.75;6.72;;;;;;;27.62;39.17;98767.00;5038682;28;20045;-65
2023/06/23 05:57:02;;;;;;;10.05;5.85;;;;;;;27.74;39.58;98779.16;5037884;28;20051;-65
2023/06/23 05:59:36;;;;;;;9.15;6.68;;;;;;;27.93;39.18;98782.78;5037704;28;20535;-64
2023/06/23 06:02:05;;;;;;;13.23;6.80;;;;;;;27.88;39.25;98782.03;5021794;28;20503;-65
2023/06/23 06:04:37;;;;;;;17.90;8.10;;;;;;;27.90;39.04;98749.81;5054370;28;20143;-64
2023/06/23 06:07:04;;;;;;;16.15;6.90;;;;;;;27.53;39.57;98763.28;5054348;28;20044;-65
2023/06/23 06:09:32;;;;;;;12.30;8.30;;;;;;;27.24;41.02;98754.28;5037416;28;20052;-64
2023/06/23 06:11:58;;;;;;;13.32;8.30;;;;;;;26.74;42.59;98755.50;5021151;28;20053;-65
2023/06/23 06:14:27;;;;;;;14.65;8.90;;;;;;;27.00;42.32;98761.59;5037516;28;20048;-65
2023/06/23 06:16:53;;;;;;;13.60;7.88;;;;;;;26.86;42.46;98747.78;5004813;28;20072;-65
2023/06/23 06:19:22;;;;;;;10.95;8.15;;;;;;;26.95;43.18;98767.06;5038117;28;20036;-65
2023/06/23 06:21:48;;;;;;;13.52;8.52;;;;;;;27.06;43.09;98768.63;5054178;28;20141;-65
2023/06/23 06:24:15;;;;;;;13.35;7.28;;;;;;;27.21;42.99;98772.03;5071247;28;20044;-65
2023/06/23 06:26:43;;;;;;;11.68;7.68;;;;;;;27.45;42.44;98772.09;5020356;28;20067;-65
2023/06/23 06:29:09;;;;;;;10.23;7.28;;;;;;;27.76;42.29;98757.03;5054539;28;20457;-64
2023/06/23 06:31:36;;;;;;;11.98;7.55;;;;;;;27.99;41.59;98750.78;5071667;28;20135;-65
2023/06/23 06:34:03;;;;;;;11.93;7.43;;;;;;;28.28;40.81;98743.28;5021923;28;20086;-65
2023/06/23 06:36:31;;;;;;;18.77;7.72;;;;;;;28.66;40.33;98750.41;5037804;28;20476;-65
2023/06/23 06:38:59;;;;;;;14.43;7.60;;;;;;;28.85;39.34;98726.63;5071641;28;20040;-65
2023/06/23 06:41:26;;;;;;;14.55;8.00;;;;;;;29.14;38.95;98737.34;5038700;28;20152;-65
2023/06/23 06:43:52;;;;;;;14.45;8.98;;;;;;;29.00;38.72;98736.50;5054780;28;20044;-65
2023/06/23 06:46:19;;;;;;;19.38;11.73;;;;;;;29.16;39.14;98746.06;5038158;28;20041;-65
2023/06/23 06:48:47;;;;;;;14.68;11.15;;;;;;;29.52;38.80;98750.59;5071313;28;20080;-65
2023/06/23 06:51:17;;;;;;;15.68;10.43;;;;;;;30.17;37.30;98742.25;5071253;28;20465;-65
2023/06/23 06:53:47;;;;;;;15.65;9.07;;;;;;;30.66;36.54;98739.50;5071084;28;20044;-65
2023/06/23 06:56:13;;;;;;;13.90;8.63;;;;;;;31.37;35.28;98741.34;5038190;28;20049;-65
2023/06/23 06:58:40;;;;;;;15.45;9.52;;;;;;;31.89;33.79;98749.50;5071952;28;20044;-66
2023/06/23 07:01:06;;;;;;;14.70;10.27;;;;;;;32.12;33.15;98748.28;5055353;28;20486;-65
2023/06/23 07:03:35;;;;;;;15.93;11.07;;;;;;;32.08;33.97;98744.56;5037861;28;20044;-65
2023/06/23 07:06:00;;;;;;;20.65;11.73;;;;;;;31.21;35.18;98729.09;5071072;28;20119;-65
2023/06/23 07:08:26;;;;;;;17.33;12.18;;;;;;;30.88;35.50;98715.69;5072058;28;20254;-65
2023/06/23 07:10:52;;;;;;;17.17;12.70;;;;;;;31.07;35.98;98731.94;5071540;28;20047;-70
2023/06/23 07:13:18;;;;;;;21.90;12.95;;;;;;;31.08;35.91;98722.56;5055757;28;20028;-65
2023/06/23 07:15:44;;;;;;;14.98;11.40;;;;;;;31.76;35.02;98741.34;5037916;28;20040;-65
2023/06/23 07:18:10;;;;;;;15.38;10.05;;;;;;;32.23;33.92;98729.59;5054324;28;20427;-66
2023/06/23 07:20:36;;;;;;;15.45;10.18;;;;;;;32.50;33.64;98743.06;5071278;28;20041;-65
2023/06/23 07:23:02;;;;;;;14.48;9.82;;;;;;;31.45;35.36;98741.38;5070643;28;20098;-65
2023/06/23 07:25:28;;;;;;;16.45;9.60;;;;;;;31.38;35.31;98737.47;5053961;28;20076;-65
2023/06/23 07:27:55;;;;;;;14.25;8.60;;;;;;;31.54;35.59;98738.69;5053723;28;20079;-65
2023/06/23 07:30:21;;;;;;;14.27;8.65;;;;;;;31.75;34.96;98731.50;5037909;28;20102;-65
2023/06/23 07:32:48;;;;;;;20.23;8.98;;;;;;;31.77;35.32;98735.53;5070774;28;20052;-66
2023/06/23 07:35:14;;;;;;;15.30;8.73;;;;;;;31.86;34.92;98741.91;5070583;28;20084;-65
2023/06/23 07:37:40;;;;;;;21.20;8.65;;;;;;;31.82;35.15;98746.41;5072710;28;20040;-65
2023/06/23 07:40:06;;;;;;;9.40;8.02;;;;;;;31.46;35.16;98729.28;5058060;28;20048;-66
2023/06/23 07:42:32;;;;;;;12.25;8.35;;;;;;;31.40;35.71;98733.28;5074679;28;20058;-65
2023/06/23 07:44:58;;;;;;;12.27;8.20;;;;;;;30.91;36.31;98738.91;5057908;28;20107;-66
2023/06/23 07:47:24;;;;;;;14.48;9.52;;;;;;;30.38;37.70;98729.75;5041202;28;20041;-65
2023/06/23 07:49:50;;;;;;;14.32;8.50;;;;;;;30.47;37.58;98731.44;5058686;28;20621;-65
2023/06/23 07:52:16;;;;;;;10.98;9.13;;;;;;;30.04;38.89;98732.09;5025864;28;20369;-65
2023/06/23 07:54:42;;;;;;;15.30;10.13;;;;;;;30.01;39.01;98727.22;5041177;28;20047;-66
2023/06/23 07:57:08;;;;;;;12.05;8.27;;;;;;;30.32;38.71;98714.53;5074383;28;20041;-66
2023/06/23 07:59:35;;;;;;;9.63;8.48;;;;;;;30.62;38.35;98722.03;5057493;28;20044;-65
2023/06/23 08:02:02;;;;;;;18.30;8.65;;;;;;;30.51;38.17;98726.94;5074362;28;20086;-65
2023/06/23 08:04:28;;;;;;;13.43;9.50;;;;;;;30.04;39.46;98726.63;5057556;28;20052;-65
2023/06/23 08:06:54;;;;;;;15.30;10.00;;;;;;;29.74;40.16;98730.00;5040673;28;20051;-65
2023/06/23 08:09:20;;;;;;;13.18;10.10;;;;;;;29.45;40.94;98730.22;5075037;28;20055;-65
2023/06/23 08:11:46;;;;;;;17.83;10.50;;;;;;;28.89;42.95;98722.16;5040693;28;20051;-65
2023/06/23 08:14:13;;;;;;;13.88;10.43;;;;;;;28.95;42.73;98721.00;5057078;28;20059;-67
2023/06/23 08:16:39;;;;;;;14.23;10.05;;;;;;;29.07;42.30;98726.81;5074167;28;20044;-65
2023/06/23 08:19:05;;;;;;;16.75;11.85;;;;;;;29.21;42.83;98722.22;5073877;28;20150;-65
2023/06/23 08:21:34;;;;;;;14.20;10.70;;;;;;;28.70;44.56;98718.66;5057071;28;20106;-67
2023/06/23 08:23:59;;;;;;;13.98;10.52;;;;;;;27.94;46.52;98715.34;5040824;28;20079;-65
2023/06/23 08:26:25;;;;;;;15.40;12.65;;;;;;;28.28;46.88;98696.06;5073607;28;20472;-65
2023/06/23 08:28:51;;;;;;;19.35;11.85;;;;;;;28.07;47.41;98709.19;5073607;28;20048;-65
2023/06/23 08:31:17;;;;;;;14.43;12.07;;;;;;;28.30;47.51;98710.22;5040467;28;20468;-65
2023/06/23 08:33:43;;;;;;;16.30;12.57;;;;;;;28.31;47.77;98704.47;5057471;28;20102;-65
2023/06/23 08:36:09;;;;;;;15.50;12.10;;;;;;;27.93;49.38;98694.63;5040640;28;20082;-65
2023/06/23 08:38:35;;;;;;;15.60;11.68;;;;;;;28.09;48.95;98696.06;5057180;28;20044;-65
2023/06/23 08:41:01;;;;;;;13.60;11.55;;;;;;;28.23;48.17;98702.38;5057065;28;20051;-65
2023/06/23 08:43:28;;;;;;;17.70;12.57;;;;;;;28.07;49.24;98713.81;5040856;28;20476;-65
2023/06/23 08:45:58;;;;;;;15.98;12.27;;;;;;;28.39;49.17;98712.00;5040802;28;20036;-65
2023/06/23 08:48:32;;;;;;;16.40;11.52;;;;;;;28.28;49.10;98696.06;5056100;28;20040;-67
2023/06/23 08:51:02;;;;;;;19.48;13.35;;;;;;;28.47;49.08;98707.81;5073446;28;20373;-65
2023/06/23 08:53:28;;;;;;;20.77;13.70;;;;;;;28.17;49.90;98708.25;5073988;28;20052;-65
2023/06/23 08:55:55;;;;;;;27.23;14.38;;;;;;;28.09;52.62;98706.16;5056298;28;20090;-65
2023/06/23 08:58:23;;;;;;;27.08;15.63;;;;;;;28.02;54.14;98712.78;5039839;28;20044;-65
2023/06/23 09:00:51;;;;;;;37.25;16.85;;;;;;;27.46;67.79;98730.09;5073155;28;20045;-65
2023/06/23 09:03:18;;;;;;;30.10;20.17;;;;;;;27.11;63.44;98722.25;5056243;28;20044;-65
2023/06/23 09:05:44;;;;;;;33.60;22.02;;;;;;;26.93;62.91;98715.56;5056153;28;20408;-65
2023/06/23 09:08:11;;;;;;;30.65;20.58;;;;;;;26.73;61.25;98715.72;5072888;28;20036;-65
2023/06/23 09:10:37;;;;;;;32.20;21.63;;;;;;;26.66;60.13;98717.16;5056135;28;20090;-65
2023/06/23 09:13:19;;;;;;;33.78;21.77;;;;;;;26.79;61.19;98716.50;5056076;28;20048;-65
2023/06/23 09:15:49;;;;;;;32.10;19.88;;;;;;;26.59;61.24;98713.88;5072956;28;20072;-65
2023/06/23 09:18:16;;;;;;;34.13;22.60;;;;;;;26.63;60.99;98720.41;5056343;28;20222;-66
2023/06/23 09:20:47;;;;;;;30.98;20.92;;;;;;;26.88;60.24;98714.81;5057035;28;20039;-65
2023/06/23 09:23:17;;;;;;;37.28;23.75;;;;;;;26.60;61.19;98713.59;5074256;28;20101;-65
2023/06/23 09:25:56;;;;;;;29.92;20.45;;;;;;;26.69;60.29;98711.16;5039774;28;20045;-69
2023/06/23 09:28:24;;;;;;;40.92;23.85;;;;;;;26.96;60.36;98714.19;5055202;28;20048;-65
2023/06/23 09:30:52;;;;;;;45.40;24.35;;;;;;;26.96;59.82;98711.44;5021978;28;20484;-65
2023/06/23 09:33:19;;;;;;;32.60;22.30;;;;;;;27.10;59.00;98713.22;5038174;28;20055;-65
2023/06/23 09:35:52;;;;;;;38.30;25.33;;;;;;;27.35;58.59;98707.56;5038619;28;20052;-65
2023/06/23 09:38:27;;;;;;;38.35;23.63;;;;;;;27.29;58.29;98697.00;5038112;28;20052;-66
2023/06/23 09:41:16;;;;;;;46.08;25.27;;;;;;;27.71;58.00;98699.78;5021722;28;20166;-65
2023/06/23 09:43:47;;;;;;;38.95;23.30;;;;;;;27.66;57.49;98699.84;5006316;28;20067;-65
2023/06/23 09:46:15;;;;;;;38.13;22.75;;;;;;;27.64;57.95;98694.69;5055089;28;20048;-65
2023/06/23 09:48:47;;;;;;;31.85;22.85;;;;;;;28.06;57.55;98691.19;5054439;28;20048;-65
2023/06/23 09:51:13;;;;;;;26.38;20.15;;;;;;;27.70;57.14;98690.78;5038826;28;20440;-65
2023/06/23 09:53:41;;;;;;;29.65;19.88;;;;;;;27.70;56.98;98692.69;5006216;28;20044;-65
2023/06/23 09:56:12;;;;;;;24.02;19.15;;;;;;;27.57;56.88;98693.41;5038529;28;20036;-65
2023/06/23 09:58:40;;;;;;;26.98;18.92;;;;;;;27.48;57.67;98689.69;5022211;28;20048;-65
2023/06/23 10:01:09;;;;;;;25.27;18.98;;;;;;;27.63;57.70;98693.06;5039595;28;20058;-65
2023/06/23 10:03:45;;;;;;;26.30;18.37;;;;;;;27.72;57.47;98685.84;5039309;28;20036;-65
2023/06/23 10:06:21;;;;;;;26.00;19.13;;;;;;;27.65;57.93;98682.66;5023089;28;20066;-65
2023/06/23 10:08:52;;;;;;;27.15;19.27;;;;;;;27.91;57.63;98692.19;5055310;28;20090;-64
2023/06/23 10:11:21;;;;;;;25.73;18.02;;;;;;;27.57;57.35;98687.97;5038955;28;20049;-65
2023/06/23 10:13:47;;;;;;;23.85;17.88;;;;;;;27.54;57.73;98702.16;5039397;28;20040;-65
2023/06/23 10:16:15;;;;;;;26.92;17.25;;;;;;;27.39;58.48;98692.25;5038616;28;20059;-65
2023/06/23 10:18:41;;;;;;;21.10;17.15;;;;;;;27.68;58.67;98697.63;5038515;28;20072;-65
2023/06/23 10:21:07;;;;;;;20.38;16.95;;;;;;;27.82;57.64;98702.09;5055033;28;20443;-65
2023/06/23 10:23:33;;;;;;;20.17;16.25;;;;;;;27.88;57.44;98705.59;5022187;28;20135;-65
2023/06/23 10:26:02;;;;;;;18.55;15.70;;;;;;;28.07;57.31;98706.44;5054826;28;20032;-65
2023/06/23 10:28:28;;;;;;;18.63;15.80;;;;;;;28.22;56.62;98713.59;5071416;28;20368;-65
2023/06/23 10:30:55;;;;;;;21.33;15.60;;;;;;;28.26;56.51;98718.22;5038379;28;20048;-65
2023/06/23 10:33:22;;;;;;;15.82;14.13;;;;;;;28.58;55.22;98717.50;5071095;28;20060;-65
2023/06/23 10:35:52;;;;;;;42.95;28.33;;;;;;;28.69;54.98;98721.69;5056273;28;20055;-65
2023/06/23 10:38:24;;;;;;;14.73;11.00;;;;;;;28.74;53.70;98718.88;5055564;28;20555;-65
2023/06/23 10:40:54;;;;;;;12.48;11.20;;;;;;;28.81;53.19;98709.19;5074293;28;20044;-68
2023/06/23 10:43:24;;;;;;;13.80;10.83;;;;;;;28.93;52.46;98716.91;5072760;28;20051;-65
2023/06/23 10:45:50;;;;;;;11.80;10.32;;;;;;;28.78;51.86;98704.31;5039073;28;20047;-65
2023/06/23 10:48:19;;;;;;;11.23;9.88;;;;;;;29.06;50.94;98716.97;5038224;28;20139;-65
2023/06/23 10:50:50;;;;;;;10.93;9.35;;;;;;;29.46;50.74;98724.44;5017706;28;20053;-66
2023/06/23 10:53:17;;;;;;;12.13;10.15;;;;;;;29.57;49.40;98717.69;4984213;28;20087;-65
2023/06/23 10:55:45;;;;;;;10.18;8.07;;;;;;;29.72;48.29;98710.31;5016698;28;20142;-65
2023/06/23 10:58:16;;;;;;;9.70;8.07;;;;;;;30.12;47.57;98724.00;5017657;28;20513;-66
2023/06/23 11:00:54;;;;;;;12.43;8.20;;;;;;;30.60;45.95;98732.53;5052214;28;20048;-65
2023/06/23 11:03:43;;;;;;;10.32;7.03;;;;;;;31.11;44.11;98727.44;5019040;28;20513;-66
2023/06/23 11:06:10;;;;;;;5.95;4.63;;;;;;;31.33;41.96;98726.63;5030032;28;20143;-65
2023/06/23 11:08:44;;;;;;;6.05;4.40;;;;;;;32.12;39.83;98729.06;4997238;28;20154;-65
2023/06/23 11:11:11;;;;;;;5.75;3.70;;;;;;;32.83;38.23;98726.88;4997632;28;20049;-66
2023/06/23 11:13:45;;;;;;;5.70;2.75;;;;;;;33.49;36.21;98715.31;5029574;28;20508;-65
2023/06/23 11:16:17;;;;;;;4.65;3.00;;;;;;;33.81;35.03;98720.19;4997332;28;20048;-65
2023/06/23 11:18:51;;;;;;;5.45;2.72;;;;;;;34.07;34.13;98746.47;5033152;28;20155;-65
2023/06/23 11:21:38;;;;;;;4.97;2.88;;;;;;;34.26;33.73;98748.81;5033096;28;20412;-65
2023/06/23 11:24:13;;;;;;;5.47;3.22;;;;;;;34.26;33.75;98751.56;5062669;28;20205;-65
2023/06/23 11:26:49;;;;;;;7.63;3.10;;;;;;;34.57;33.48;98743.75;5071980;28;20047;-65
2023/06/23 11:29:24;;;;;;;4.47;3.28;;;;;;;35.06;32.70;98733.81;5070760;28;20040;-65
2023/06/23 11:32:06;;;;;;;4.63;3.30;;;;;;;35.87;31.32;98736.66;5072028;28;20043;-66
2023/06/23 11:34:56;;;;;;;4.80;3.67;;;;;;;36.11;30.29;98736.63;5037744;28;20040;-65